METAR Data
IDs: Format: Raw Decoded Include TAF

Data at: 1808 UTC 06 Jul 2020

Region: TOP
KATL 061752Z 09010KT 10SM SCT030TCU BKN042 BKN070 OVC140 28/20 A3001 RMK AO2 SLP152 TCU N E-S NW SHRA E-SE 60000 T02780200 10300 20233 58012

KBOS 061754Z 09013KT 10SM FEW009 FEW015 FEW025 21/17 A3011 RMK AO2 SLP197 T02060172 10211 20183 51007 $

KBWI 061754Z 19006KT 10SM FEW070 SCT140 BKN180 34/23 A3001 RMK AO2 SLP159 T03390228 10339 20256 58008

KCLE 061751Z 03007KT 10SM FEW250 33/12 A3007 RMK AO2 SLP174 T03280122 10328 20217 50002

KCLT 061752Z VRB03KT 10SM SCT047 BKN200 BKN250 31/18 A3007 RMK AO2 LTG DSNT SW SLP173 T03110178 10311 20239 58011

KCVG 061752Z VRB05KT 7SM SCT110 BKN150 31/21 A3004 RMK AO2 SLP160 60012 T03060211 10306 20217 56007

KDCA 061752Z 17011KT 10SM FEW050 FEW170 SCT250 34/23 A3001 RMK AO2 SLP164 T03440233 10344 20267 58011

KDEN 061753Z VRB03KT 10SM FEW100 FEW150 FEW220 31/08 A3012 RMK AO2 SLP108 T03110083 10311 20161 58004

KDFW 061753Z 12005KT 10SM SCT016 SCT060 BKN150 BKN250 27/23 A2991 RMK AO2 SLP120 CB DSNT NW-N 60006 T02720233 10272 20233 50008 $

KDTW 061753Z COR 17007G16KT 150V210 10SM SCT070 SCT250 33/17 A3003 RMK AO2 SLP163 T03280167 10328 20239 58003

KEWR 061758Z VRB06KT 10SM VCTS FEW050 SCT250 34/16 A2998 RMK AO2 TSE52 CB DSNT S-DSNT SW MOV NE T03390156

KFLL 061753Z 23005KT 10SM FEW025 FEW050 SCT075 BKN150 BKN250 31/27 A3006 RMK AO2 LTG DSNT ALQDS TSE44 SLP178 CB DSNT N AND S AND NW MOV NE 60016 T03060267 10322 20256 58000

KIAD 061752Z 00000KT 10SM SCT055 BKN140 33/22 A3002 RMK AO2 SLP162 T03280222 10333 20239 58008

KIAH 061753Z 17004KT 10SM FEW030 BKN150 OVC250 31/24 A2994 RMK AO2 SLP138 T03110239 10311 20283 51004

KJFK 061751Z 15009KT 10SM FEW060 FEW250 32/16 A3002 RMK AO2 SLP164 CB DSNT SW MOV E T03220156 10328 20261 58006

KLAS 061756Z VRB05KT 10SM CLR 37/00 A2988 RMK AO2 SLP083 T03720000 10372 20278 50000

KLAX 061753Z 26010KT 9SM FEW005 FEW050 24/17 A2989 RMK AO2 SLP121 FU FEW050 T02390167 10256 20172 53010

KLGA 061751Z VRB04KT 10SM FEW080 FEW250 35/14 A2999 RMK AO2 SLP157 T03500144 10356 20261 58010 $

KMCO 061753Z 17006KT 10SM SCT040 BKN300 33/23 A3001 RMK AO2 LTG DSNT ALQDS SLP162 CB DSNT S-W-N MOV E 60000 T03280233 10328 20250 58015

KMDW 061753Z 28005KT 10SM SCT065 SCT080 SCT250 34/17 A3001 RMK AO2 SLP147 T03390167 10339 20267 58007

KMEM 061754Z VRB03KT 10SM FEW037 SCT110 BKN180 32/23 A2997 RMK AO2 SLP144 60000 T03170228 10317 20239 57004

KMIA 061753Z VRB03KT 10SM TS FEW025CB SCT070 SCT150 BKN230 31/25 A3007 RMK AO2 LTG DSNT S-NW TSB46 SLP183 OCNL LTGICCG NE-E TS NE-E MOV N CB DSNT SW MOV NE 60012 T03060250 10322 20278 50000 $

KMSP 061753Z 20005KT 10SM FEW016 FEW080 SCT150 BKN250 27/22 A2999 RMK AO2 SLP147 60035 T02720217 10272 20228 55000

KORD 061751Z 29005KT 10SM FEW065 34/18 A3001 RMK AO2 SLP154 TCU DSNT W T03390178 10339 20261 58006

KPDX 061753Z 26006KT 10SM OVC030 17/09 A3009 RMK AO2 SLP190 T01720094 10172 20144 55002

KPHL 061754Z 21015KT 10SM TS BKN055CB BKN160 BKN250 33/20 A2997 RMK AO2 LTG DSNT NW-E TSB1657 SLP149 OCNL LTGIC VC N TS VC N STNRY T03280200 10333 20261 58018

KPHX 061751Z VRB04KT 10SM FEW150 41/02 A2984 RMK AO2 SLP082 T04060022 10406 20283 51004 $

KPIT 061751Z VRB04G14KT 10SM FEW034 BKN250 33/13 A3004 RMK AO2 SLP170 T03280133 10333 20233 58003

KSAN 061751Z 19007KT 8SM FEW008 22/17 A2991 RMK AO2 SLP129 T02220167 10222 20189 53010

KSEA 061753Z 22008G15KT 10SM FEW035 FEW055 FEW120 18/09 A3008 RMK AO2 SLP191 T01780089 10178 20133 50001

KSFO 061756Z 28021KT 10SM FEW009 18/09 A2998 RMK AO2 PK WND 29029/1733 SLP153 T01780094 10178 20128 51009

KSLC 061754Z 00000KT 10SM FEW110 32/04 A3000 RMK AO2 SLP095 T03170039 10317 20189 58004

KSTL 061751Z 03006KT 10SM BKN039 BKN250 32/22 A3000 RMK AO2 LTG DSNT NW SLP144 TCU DSNT NW T03170222 10339 20256 58005

KTPA 061753Z 24009KT 10SM SCT040TCU SCT060 33/22 A3002 RMK AO2 SLP165 CB DSNT NW-NE TCU ALQDS 60000 T03280222 10328 20267 58009